createdAt,value
2023-03-30T00:01:12.441Z,54.28
2023-03-30T00:03:39.791Z,54.94
2023-03-30T00:06:08.888Z,54.87
2023-03-30T00:08:36.080Z,54.86
2023-03-30T00:11:08.294Z,54.83
2023-03-30T00:13:36.748Z,55.15
2023-03-30T00:16:05.151Z,54.93
2023-03-30T00:18:32.202Z,55.31
2023-03-30T00:20:59.015Z,55.24
2023-03-30T00:23:26.226Z,55.29
2023-03-30T00:25:52.997Z,55.30
2023-03-30T00:28:19.821Z,55.32
2023-03-30T00:30:50.219Z,55.52
2023-03-30T00:33:17.041Z,55.23
2023-03-30T00:35:43.907Z,55.36
2023-03-30T00:38:10.744Z,55.47
2023-03-30T00:40:40.913Z,55.40
2023-03-30T00:43:14.247Z,55.48
2023-03-30T00:45:41.106Z,55.62
2023-03-30T00:48:11.855Z,55.95
2023-03-30T00:50:42.016Z,55.93
2023-03-30T00:53:17.344Z,55.98
2023-03-30T00:55:46.646Z,55.87
2023-03-30T00:58:16.780Z,56.00
2023-03-30T01:00:47.238Z,55.76
2023-03-30T01:03:37.501Z,55.82
2023-03-30T01:06:07.594Z,56.00
2023-03-30T01:08:35.104Z,55.86
2023-03-30T01:11:02.970Z,55.81
2023-03-30T01:13:35.773Z,55.81
2023-03-30T01:16:19.019Z,55.50
2023-03-30T01:19:01.312Z,55.80
2023-03-30T01:21:39.910Z,55.93
2023-03-30T01:24:42.885Z,55.99
2023-03-30T01:27:09.860Z,56.29
2023-03-30T01:30:09.683Z,56.38
2023-03-30T01:33:01.064Z,56.39
2023-03-30T01:35:46.482Z,56.59
2023-03-30T01:38:41.267Z,56.96
2023-03-30T01:41:20.055Z,57.02
2023-03-30T01:44:35.995Z,56.96
2023-03-30T01:47:02.740Z,56.78
2023-03-30T01:49:38.278Z,57.24
2023-03-30T01:52:14.386Z,57.15
2023-03-30T01:54:49.536Z,56.98
2023-03-30T01:57:20.696Z,56.95
2023-03-30T01:59:58.499Z,57.16
2023-03-30T02:02:31.003Z,57.43
2023-03-30T02:05:05.251Z,57.60
2023-03-30T02:07:35.894Z,57.46
2023-03-30T02:10:06.381Z,57.42
2023-03-30T02:12:36.130Z,57.54
2023-03-30T02:15:10.699Z,57.46
2023-03-30T02:17:38.391Z,57.48
2023-03-30T02:20:09.527Z,57.70
2023-03-30T02:22:36.949Z,57.55
2023-03-30T02:25:03.851Z,57.54
2023-03-30T02:27:32.132Z,57.52
2023-03-30T02:29:59.259Z,57.61
2023-03-30T02:32:32.076Z,57.81
2023-03-30T02:35:15.492Z,57.82
2023-03-30T02:37:46.390Z,57.98
2023-03-30T02:41:02.817Z,58.17
2023-03-30T02:43:48.328Z,58.53
2023-03-30T02:46:33.975Z,59.06
2023-03-30T02:49:16.722Z,59.34
2023-03-30T02:51:54.110Z,59.66
2023-03-30T02:54:37.746Z,60.20
2023-03-30T02:57:41.300Z,60.22
2023-03-30T03:01:03.601Z,59.94
2023-03-30T03:03:47.699Z,60.09
2023-03-30T03:06:17.385Z,60.25
2023-03-30T03:08:49.631Z,60.39
2023-03-30T03:11:23.165Z,60.30
2023-03-30T03:13:50.343Z,60.30
2023-03-30T03:16:17.403Z,60.59
2023-03-30T03:19:08.239Z,60.65
2023-03-30T03:21:35.205Z,60.34
2023-03-30T03:24:02.486Z,60.46
2023-03-30T03:26:49.490Z,60.71
2023-03-30T03:29:16.880Z,60.19
2023-03-30T03:31:43.656Z,60.08
2023-03-30T03:34:10.850Z,60.09
2023-03-30T03:36:57.260Z,60.21
2023-03-30T03:39:28.051Z,59.96
2023-03-30T03:42:04.476Z,60.33
2023-03-30T03:44:31.609Z,60.39
2023-03-30T03:46:58.395Z,60.47
2023-03-30T03:49:25.254Z,60.68
2023-03-30T03:51:53.659Z,61.16
2023-03-30T03:54:20.750Z,60.91
2023-03-30T03:56:49.092Z,61.73
2023-03-30T03:59:15.942Z,60.96
2023-03-30T04:01:42.805Z,61.15
2023-03-30T04:04:09.711Z,61.64
2023-03-30T04:06:37.045Z,61.97
2023-03-30T04:09:03.930Z,62.09
2023-03-30T04:11:49.586Z,62.47
2023-03-30T04:14:35.084Z,62.36
2023-03-30T04:17:23.959Z,62.33
2023-03-30T04:20:12.260Z,62.57
2023-03-30T04:23:02.822Z,62.10
2023-03-30T04:25:57.915Z,61.81
2023-03-30T04:28:59.739Z,61.65
2023-03-30T04:31:50.929Z,61.85
2023-03-30T04:34:42.647Z,61.79
2023-03-30T04:37:30.670Z,61.74
2023-03-30T04:40:08.125Z,62.05
2023-03-30T04:42:54.671Z,62.56
2023-03-30T04:45:38.089Z,63.58
2023-03-30T04:48:07.797Z,63.54
2023-03-30T04:51:10.324Z,63.49
2023-03-30T04:54:00.089Z,63.35
2023-03-30T04:56:45.632Z,63.14
2023-03-30T04:59:18.630Z,63.22
2023-03-30T05:02:05.858Z,63.32
2023-03-30T05:04:51.468Z,63.32
2023-03-30T05:07:36.757Z,63.40
2023-03-30T05:10:18.658Z,63.14
2023-03-30T05:13:01.876Z,62.95
2023-03-30T05:16:01.630Z,62.89
2023-03-30T05:18:49.337Z,63.05
2023-03-30T05:21:39.436Z,63.63
2023-03-30T05:24:26.758Z,63.83
2023-03-30T05:26:53.548Z,64.15
2023-03-30T05:29:43.224Z,63.94
2023-03-30T05:32:28.229Z,63.85
2023-03-30T05:35:31.030Z,63.69
2023-03-30T05:38:04.200Z,63.58
2023-03-30T05:40:47.776Z,63.37
2023-03-30T05:43:34.547Z,63.44
2023-03-30T05:46:30.999Z,63.34
2023-03-30T05:49:16.471Z,63.11
2023-03-30T05:52:05.612Z,63.57
2023-03-30T05:54:50.949Z,63.10
2023-03-30T05:57:53.092Z,62.94
2023-03-30T06:00:36.820Z,62.88
2023-03-30T06:03:14.878Z,62.70
2023-03-30T06:05:43.759Z,62.76
2023-03-30T06:08:12.066Z,62.59
2023-03-30T06:10:39.144Z,62.05
2023-03-30T06:13:09.227Z,62.39
2023-03-30T06:15:46.594Z,62.30
2023-03-30T06:18:19.023Z,62.36
2023-03-30T06:20:53.641Z,62.24
2023-03-30T06:23:21.257Z,62.17
2023-03-30T06:25:53.236Z,62.02
2023-03-30T06:28:25.606Z,61.67
2023-03-30T06:30:53.724Z,61.84
2023-03-30T06:33:26.011Z,61.58
2023-03-30T06:35:58.145Z,64.64
2023-03-30T06:38:25.164Z,63.94
2023-03-30T06:40:53.540Z,63.86
2023-03-30T06:43:25.392Z,60.92
2023-03-30T06:46:08.694Z,61.46
2023-03-30T06:48:35.730Z,62.52
2023-03-30T06:51:21.258Z,60.71
2023-03-30T06:53:48.661Z,60.73
2023-03-30T06:56:15.673Z,60.99
2023-03-30T06:59:00.521Z,61.51
2023-03-30T07:01:27.824Z,61.43
2023-03-30T07:04:20.693Z,61.57
2023-03-30T07:07:20.940Z,61.57
2023-03-30T07:09:48.768Z,61.77
2023-03-30T07:12:15.672Z,62.24
2023-03-30T07:14:43.270Z,62.61
2023-03-30T07:17:10.340Z,62.96
2023-03-30T07:19:37.294Z,62.46
2023-03-30T07:22:04.171Z,62.66
2023-03-30T07:24:31.512Z,62.85
2023-03-30T07:26:59.071Z,62.36
2023-03-30T07:29:28.332Z,62.41
2023-03-30T07:31:56.810Z,62.22
2023-03-30T07:34:24.048Z,62.72
2023-03-30T07:36:54.859Z,62.74
2023-03-30T07:39:25.754Z,62.26
2023-03-30T07:41:52.581Z,61.82
2023-03-30T07:44:19.719Z,61.92
2023-03-30T07:46:46.736Z,61.89
2023-03-30T07:49:20.075Z,61.79
2023-03-30T07:51:47.326Z,61.47
2023-03-30T07:54:21.038Z,61.37
2023-03-30T07:57:03.177Z,60.97
2023-03-30T07:59:30.232Z,60.69
2023-03-30T08:02:07.067Z,60.31
2023-03-30T08:04:54.460Z,60.05
2023-03-30T08:07:30.197Z,59.81
2023-03-30T08:10:08.297Z,59.36
2023-03-30T08:12:35.173Z,59.02
2023-03-30T08:15:02.425Z,59.30
2023-03-30T08:17:29.209Z,58.64
2023-03-30T08:19:56.444Z,58.24
2023-03-30T08:22:23.464Z,57.68
2023-03-30T08:24:50.796Z,57.37
2023-03-30T08:27:17.599Z,56.97
2023-03-30T08:29:44.414Z,56.90
2023-03-30T08:32:13.652Z,56.61
2023-03-30T08:34:40.728Z,56.32
2023-03-30T08:37:07.769Z,56.08
2023-03-30T08:39:34.812Z,55.82
2023-03-30T08:42:04.539Z,55.52
2023-03-30T08:44:53.429Z,55.44
2023-03-30T08:47:33.212Z,55.24
2023-03-30T08:50:05.536Z,55.07
2023-03-30T08:52:33.946Z,54.97
2023-03-30T08:55:01.903Z,54.56
2023-03-30T08:57:41.174Z,54.25
2023-03-30T09:00:22.359Z,54.15
2023-03-30T09:02:53.922Z,54.15
2023-03-30T09:05:28.421Z,54.27
2023-03-30T09:08:23.285Z,54.16
2023-03-30T09:10:58.140Z,54.19
2023-03-30T09:13:28.341Z,54.25
2023-03-30T09:16:03.237Z,54.31
2023-03-30T09:18:34.912Z,55.18
2023-03-30T09:21:06.203Z,55.84
2023-03-30T09:23:34.050Z,55.73
2023-03-30T09:26:13.295Z,56.24
2023-03-30T09:29:25.869Z,56.63
2023-03-30T09:32:02.055Z,57.56
2023-03-30T09:34:53.239Z,57.50
2023-03-30T09:37:21.772Z,57.68
2023-03-30T09:39:49.849Z,57.72
2023-03-30T09:42:47.685Z,58.07
2023-03-30T09:45:22.306Z,58.48
2023-03-30T09:47:49.271Z,57.97
2023-03-30T09:50:23.641Z,58.78
2023-03-30T09:52:59.209Z,58.86
2023-03-30T09:55:31.274Z,58.80
2023-03-30T09:58:17.570Z,58.20
2023-03-30T10:00:45.928Z,57.73
2023-03-30T10:03:22.081Z,58.48
2023-03-30T10:06:07.592Z,58.25
2023-03-30T10:08:43.242Z,58.38
2023-03-30T10:11:10.501Z,58.21
2023-03-30T10:13:42.305Z,58.70
2023-03-30T10:16:34.365Z,58.40
2023-03-30T10:19:03.529Z,58.15
2023-03-30T10:21:39.022Z,58.19
2023-03-30T10:24:18.578Z,57.68
2023-03-30T10:26:46.857Z,57.51
2023-03-30T10:29:17.135Z,57.15
2023-03-30T10:31:46.900Z,56.84
2023-03-30T10:34:41.466Z,55.58
2023-03-30T10:37:13.269Z,55.63
2023-03-30T10:39:43.565Z,55.12
2023-03-30T10:42:17.114Z,54.66
2023-03-30T10:44:43.785Z,53.77
2023-03-30T10:47:25.595Z,53.18
2023-03-30T10:50:14.007Z,53.35
2023-03-30T10:53:04.903Z,53.79
2023-03-30T10:55:50.287Z,53.56
2023-03-30T10:58:38.405Z,54.26
2023-03-30T11:01:18.515Z,54.55
2023-03-30T11:03:52.054Z,54.32
2023-03-30T11:06:28.481Z,54.17
2023-03-30T11:08:58.877Z,55.13
2023-03-30T11:11:51.481Z,55.49
2023-03-30T11:14:43.151Z,55.60
2023-03-30T11:17:31.714Z,53.83
2023-03-30T11:20:18.477Z,54.56
2023-03-30T11:22:51.588Z,54.47
2023-03-30T11:25:25.265Z,53.35
2023-03-30T11:28:03.757Z,53.22
2023-03-30T11:30:33.715Z,52.15
2023-03-30T11:33:32.133Z,53.04
2023-03-30T11:36:11.285Z,53.51
2023-03-30T11:39:03.907Z,54.63
2023-03-30T11:41:48.667Z,55.04
2023-03-30T11:44:15.473Z,54.99
2023-03-30T11:46:55.172Z,55.01
2023-03-30T11:49:44.869Z,54.20
2023-03-30T11:52:32.891Z,53.71
2023-03-30T11:55:23.474Z,54.29
2023-03-30T11:58:06.836Z,54.39
2023-03-30T12:00:34.736Z,54.29
2023-03-30T12:03:09.390Z,54.52
2023-03-30T12:05:48.337Z,55.18
2023-03-30T12:08:36.503Z,55.82
2023-03-30T12:11:30.919Z,55.20
2023-03-30T12:13:58.815Z,55.20
2023-03-30T12:16:42.709Z,55.86
2023-03-30T12:19:53.478Z,55.46
2023-03-30T12:22:35.384Z,55.21
2023-03-30T12:25:28.383Z,55.88
2023-03-30T12:28:12.289Z,55.25
2023-03-30T12:30:57.849Z,55.35
2023-03-30T12:33:48.896Z,55.40
2023-03-30T12:36:35.091Z,55.31
2023-03-30T12:39:05.608Z,55.30
2023-03-30T12:41:48.537Z,56.23
2023-03-30T12:44:41.135Z,56.57
2023-03-30T12:47:23.267Z,56.91
2023-03-30T12:49:59.662Z,57.02
2023-03-30T12:53:03.842Z,57.25
2023-03-30T12:55:40.486Z,57.79
2023-03-30T12:58:24.420Z,57.93
2023-03-30T13:01:14.121Z,57.79
2023-03-30T13:03:40.878Z,57.80
2023-03-30T13:06:21.758Z,58.50
2023-03-30T13:08:54.781Z,59.60
2023-03-30T13:11:22.931Z,59.87
2023-03-30T13:13:51.683Z,59.48
2023-03-30T13:16:55.111Z,59.75
2023-03-30T13:19:41.084Z,59.12
2023-03-30T13:22:11.284Z,59.15
2023-03-30T13:24:57.869Z,59.69
2023-03-30T13:27:36.530Z,58.59
2023-03-30T13:30:12.471Z,58.01
2023-03-30T13:32:51.303Z,58.07
2023-03-30T13:35:23.914Z,58.55
2023-03-30T13:37:56.620Z,59.36
2023-03-30T13:43:39.830Z,59.27
2023-03-30T13:46:17.915Z,59.54
2023-03-30T13:48:47.609Z,60.35
2023-03-30T13:51:20.931Z,59.58
2023-03-30T13:53:54.178Z,59.03
2023-03-30T13:56:21.756Z,59.43
2023-03-30T13:59:16.206Z,59.14
2023-03-30T14:01:48.950Z,59.47
2023-03-30T14:04:16.434Z,59.61
2023-03-30T14:06:46.986Z,59.69
2023-03-30T14:09:19.576Z,59.19
2023-03-30T14:11:52.988Z,59.17
2023-03-30T14:14:29.070Z,59.94
2023-03-30T14:17:00.405Z,59.34
2023-03-30T14:19:42.248Z,59.63
2023-03-30T14:22:21.883Z,59.22
2023-03-30T14:24:58.922Z,59.60
2023-03-30T14:27:28.082Z,59.30
2023-03-30T14:29:55.220Z,59.26
2023-03-30T14:32:23.408Z,59.40
2023-03-30T14:34:52.253Z,58.88
2023-03-30T14:37:21.397Z,58.95
2023-03-30T14:39:56.692Z,59.03
2023-03-30T14:42:31.526Z,59.71
2023-03-30T14:44:58.493Z,60.54
2023-03-30T14:47:26.673Z,60.87
2023-03-30T14:49:59.980Z,60.82
2023-03-30T14:52:40.715Z,60.62
2023-03-30T14:55:26.543Z,60.27
2023-03-30T14:57:55.836Z,60.42
2023-03-30T15:00:25.025Z,60.62
2023-03-30T15:03:02.013Z,60.99
2023-03-30T15:05:36.128Z,61.59
2023-03-30T15:08:03.936Z,62.29
2023-03-30T15:10:50.322Z,62.49
2023-03-30T15:13:31.652Z,63.61
2023-03-30T15:16:00.526Z,63.42
2023-03-30T15:18:30.443Z,64.21
2023-03-30T15:20:59.195Z,64.52
2023-03-30T15:23:35.335Z,65.81
2023-03-30T15:26:04.338Z,65.08
2023-03-30T15:28:35.514Z,65.90
2023-03-30T15:31:02.610Z,65.31
2023-03-30T15:33:33.194Z,65.43
2023-03-30T15:36:07.548Z,65.53
2023-03-30T15:38:42.914Z,66.15
2023-03-30T15:41:14.644Z,66.12
2023-03-30T15:43:56.701Z,66.80
2023-03-30T15:46:23.633Z,67.11
2023-03-30T15:48:53.667Z,68.29
2023-03-30T15:51:29.362Z,68.11
2023-03-30T15:54:13.659Z,68.20
2023-03-30T15:56:47.544Z,68.25
2023-03-30T15:59:22.171Z,67.16
2023-03-30T16:01:53.671Z,67.12
2023-03-30T16:04:22.914Z,67.29
2023-03-30T16:06:50.489Z,66.35
2023-03-30T16:09:17.674Z,65.33
2023-03-30T16:11:46.926Z,65.70
2023-03-30T16:14:17.968Z,65.93
2023-03-30T16:16:44.942Z,66.21
2023-03-30T16:19:13.931Z,65.79
2023-03-30T16:21:42.518Z,65.27
2023-03-30T16:24:10.939Z,64.52
2023-03-30T16:26:37.660Z,64.77
2023-03-30T16:29:04.498Z,64.73
2023-03-30T16:31:33.812Z,64.44
2023-03-30T16:34:00.889Z,65.13
2023-03-30T16:36:29.411Z,65.24
2023-03-30T16:38:56.431Z,65.43
2023-03-30T16:41:23.422Z,66.06
2023-03-30T16:43:50.304Z,64.25
2023-03-30T16:46:22.196Z,64.49
2023-03-30T16:48:49.182Z,64.62
2023-03-30T16:51:16.279Z,64.97
2023-03-30T16:53:43.122Z,65.40
2023-03-30T16:56:16.846Z,64.67
2023-03-30T16:58:44.098Z,63.93
2023-03-30T17:01:13.446Z,65.20
2023-03-30T17:03:40.568Z,64.73
2023-03-30T17:06:08.325Z,65.03
2023-03-30T17:08:35.598Z,65.11
2023-03-30T17:11:07.738Z,65.09
2023-03-30T17:13:35.004Z,64.77
2023-03-30T17:16:02.987Z,64.88
2023-03-30T17:18:30.307Z,65.00
2023-03-30T17:20:59.068Z,65.19
2023-03-30T17:23:30.414Z,65.57
2023-03-30T17:25:58.626Z,65.86
2023-03-30T17:28:27.067Z,65.94
2023-03-30T17:31:09.928Z,65.98
2023-03-30T17:33:38.095Z,65.86
2023-03-30T17:36:11.883Z,66.32
2023-03-30T17:38:39.447Z,66.25
2023-03-30T17:41:08.977Z,65.86
2023-03-30T17:43:35.702Z,65.74
2023-03-30T17:46:02.549Z,65.62
2023-03-30T17:48:29.243Z,65.54
2023-03-30T17:50:56.135Z,65.31
2023-03-30T17:53:23.393Z,65.67
2023-03-30T17:55:52.471Z,65.59
2023-03-30T17:58:26.680Z,65.10
2023-03-30T18:00:53.873Z,65.41
2023-03-30T18:03:22.722Z,65.76
2023-03-30T18:05:50.754Z,65.63
2023-03-30T18:08:21.392Z,65.98
2023-03-30T18:10:53.873Z,66.15
2023-03-30T18:13:22.430Z,66.49
2023-03-30T18:15:51.783Z,66.32
2023-03-30T18:18:22.865Z,66.44
2023-03-30T18:20:52.328Z,66.63
2023-03-30T18:23:19.980Z,67.21
2023-03-30T18:25:47.252Z,67.04
2023-03-30T18:28:18.374Z,66.88
2023-03-30T18:30:45.815Z,66.95
2023-03-30T18:33:12.673Z,66.71
2023-03-30T18:35:39.608Z,66.84
2023-03-30T18:38:06.768Z,66.53
2023-03-30T18:40:35.123Z,66.77
2023-03-30T18:43:02.050Z,67.13
2023-03-30T18:45:33.836Z,66.97
2023-03-30T18:48:02.348Z,66.99
2023-03-30T18:50:36.194Z,67.02
2023-03-30T18:53:05.322Z,67.15
2023-03-30T18:55:35.324Z,67.14
2023-03-30T18:58:03.502Z,67.31
2023-03-30T19:00:32.146Z,67.28
2023-03-30T19:02:59.349Z,67.31
2023-03-30T19:05:28.715Z,67.39
2023-03-30T19:07:56.456Z,67.58
2023-03-30T19:10:32.309Z,67.34
2023-03-30T19:12:59.085Z,67.35
2023-03-30T19:15:31.435Z,67.25
2023-03-30T19:18:04.345Z,67.37
2023-03-30T19:20:34.091Z,67.38
2023-03-30T19:23:01.204Z,67.56
2023-03-30T19:25:28.218Z,67.56
2023-03-30T19:28:03.274Z,67.48
2023-03-30T19:30:33.733Z,67.51
2023-03-30T19:33:08.135Z,67.44
2023-03-30T19:35:35.073Z,67.40
2023-03-30T19:38:02.153Z,67.51
2023-03-30T19:40:29.085Z,67.52
2023-03-30T19:42:56.127Z,67.69
2023-03-30T19:45:23.960Z,67.58
2023-03-30T19:47:53.161Z,67.40
2023-03-30T19:50:23.253Z,67.70
2023-03-30T19:52:50.993Z,67.59
2023-03-30T19:55:19.438Z,67.78
2023-03-30T19:57:46.977Z,68.00
2023-03-30T20:00:16.157Z,67.96
2023-03-30T20:02:48.450Z,67.79
2023-03-30T20:05:16.660Z,67.85
2023-03-30T20:07:45.441Z,67.97
2023-03-30T20:10:15.769Z,67.76
2023-03-30T20:12:42.584Z,67.98
2023-03-30T20:15:09.962Z,67.99
2023-03-30T20:17:38.398Z,67.98
2023-03-30T20:20:08.836Z,67.97
2023-03-30T20:22:37.262Z,68.01
2023-03-30T20:25:07.626Z,68.16
2023-03-30T20:27:35.564Z,68.22
2023-03-30T20:30:03.600Z,68.04
2023-03-30T20:32:30.470Z,68.19
2023-03-30T20:34:57.270Z,68.18
2023-03-30T20:37:24.045Z,68.34
2023-03-30T20:39:50.878Z,68.20
2023-03-30T20:42:18.366Z,68.19
2023-03-30T20:44:50.472Z,68.45
2023-03-30T20:47:17.791Z,68.44
2023-03-30T20:49:46.345Z,68.34
2023-03-30T20:52:13.459Z,68.39
2023-03-30T20:54:41.632Z,68.60
2023-03-30T20:57:08.452Z,68.49
2023-03-30T20:59:37.537Z,68.74
2023-03-30T21:02:05.013Z,68.54
2023-03-30T21:04:36.521Z,68.52
2023-03-30T21:07:03.810Z,68.94
2023-03-30T21:09:30.947Z,68.54
2023-03-30T21:11:57.775Z,68.87
2023-03-30T21:14:24.666Z,68.94
2023-03-30T21:16:51.508Z,68.47
2023-03-30T21:19:18.371Z,68.49
2023-03-30T21:21:45.463Z,68.56
2023-03-30T21:24:13.237Z,68.38
2023-03-30T21:26:40.919Z,68.58
2023-03-30T21:29:07.853Z,68.88
2023-03-30T21:31:34.792Z,68.91
2023-03-30T21:34:01.642Z,69.10
2023-03-30T21:36:28.453Z,69.08
2023-03-30T21:38:57.630Z,68.93
2023-03-30T21:41:26.234Z,68.91
2023-03-30T21:43:53.229Z,68.86
2023-03-30T21:46:22.116Z,68.81
2023-03-30T21:48:53.164Z,68.99
2023-03-30T21:51:27.287Z,69.49
2023-03-30T21:53:56.182Z,69.87
2023-03-30T21:56:25.978Z,70.23
2023-03-30T21:58:53.641Z,70.24
2023-03-30T22:01:24.141Z,70.26
2023-03-30T22:03:52.669Z,70.46
2023-03-30T22:06:20.921Z,70.28
2023-03-30T22:08:49.228Z,70.09
2023-03-30T22:11:21.343Z,70.41
2023-03-30T22:13:49.051Z,70.17
2023-03-30T22:16:24.183Z,70.04
2023-03-30T22:18:52.042Z,70.03
2023-03-30T22:21:34.125Z,70.02
2023-03-30T22:24:06.313Z,69.98
2023-03-30T22:26:34.360Z,70.49
2023-03-30T22:29:01.266Z,70.77
2023-03-30T22:31:28.441Z,70.96
2023-03-30T22:33:56.473Z,70.79
2023-03-30T22:36:26.351Z,70.87
2023-03-30T22:38:53.222Z,70.56
2023-03-30T22:41:23.888Z,70.52
2023-03-30T22:43:52.312Z,70.38
2023-03-30T22:46:19.148Z,70.46
2023-03-30T22:48:46.048Z,70.22
2023-03-30T22:51:23.341Z,70.31
2023-03-30T22:53:50.347Z,70.28
2023-03-30T22:56:17.147Z,70.62
2023-03-30T22:58:46.326Z,70.40
2023-03-30T23:01:14.318Z,70.51
2023-03-30T23:03:41.476Z,70.33
2023-03-30T23:06:09.386Z,70.33
2023-03-30T23:08:36.882Z,70.54
2023-03-30T23:11:06.787Z,70.65
2023-03-30T23:13:37.817Z,70.59
2023-03-30T23:16:06.611Z,70.68
2023-03-30T23:18:34.098Z,70.61
2023-03-30T23:21:06.244Z,70.73
2023-03-30T23:23:35.373Z,70.43
2023-03-30T23:26:09.206Z,70.52
2023-03-30T23:28:41.864Z,70.27
2023-03-30T23:31:15.016Z,70.21
2023-03-30T23:33:42.637Z,70.35
2023-03-30T23:36:13.633Z,70.50
2023-03-30T23:38:41.043Z,70.83
2023-03-30T23:41:07.820Z,70.59
2023-03-30T23:43:34.748Z,70.57
2023-03-30T23:46:01.737Z,70.76
2023-03-30T23:48:28.764Z,70.66
2023-03-30T23:50:57.282Z,70.59
2023-03-30T23:53:26.508Z,70.59
2023-03-30T23:55:54.131Z,70.68
2023-03-30T23:58:21.034Z,71.07
